Wekiva Springs, Florida
Current Conditions -  °F | °C
As of 1:53 PM on Tuesday 21 Oct 2014 (Local Time) from KORL Reporting Station
Scattered Clouds Scattered Clouds  
Wind Chill: 84°   Ceiling: Unl
Heat Index: 87°   Visibility: 10mi
Dew Point: 68°   Wind: 3mph
Humidity: 58%   Direction: NA
Pressure: 29.93"   Gusts: NA
Location:  28.7°N, 81.42°W
Report Text: KORL 211753Z VRB03KT 10SM FEW038 SCT055 29/20 A2993 RMK AO2 SLP136 T02890200 10300 20217 58018
Loading
Personal Weather Stations






























Interactive Weather Map New forecast layout! Learn more

10-Day Weather Forecast

Advertisements
Track Severe Weather on mobile